Schenectady, NY (12306)

10:10 PM EST on November 26, 2014 (GMT -0500)
Stockade | Change Station
CLOSE
Current Station
Personal Weather Station
Location: Schenectady, NY
Elevation: 249 ft
Nearby Weather Stations

Elev 249 ft 42.82 °N, 73.95 °W | Updated 19 seconds ago

Snow
Snow
32.2 °F
Feels Like 32 °F
N
0.0
Wind Variable Wind from ENE
Gusts 0.0 mph

Today
High -- | Low -- °F
--% Chance of Precip.
Yesterday
High -- | Low -- °F
Precip. -- in
7:01 AM 4:25 PM
Waxing Crescent, 25% visible
Pressure 29.93 in
Visibility 1.5 miles
Clouds Mostly Cloudy 600 ft
Overcast 1400 ft
Windchill 32 °F
Dew Point 30 °F
Humidity 90%
Rainfall 0.00 in
Snow Depth Not available.
UV 0 out of 12
Pollen .10 out of 12
Air Quality Not available.
Flu Activity Not available.
METAR KALB 270251Z 35009KT 1 1/2SM -SN BR BKN006 OVC014 00/M02 A2991 RMK AO2 SLP133 P0003 60010 T00001017 58009

More Conditions Fewer Conditions

Pressure 29.93 in
Visibility 1.5 miles
Clouds Mostly Cloudy 600 ft
Overcast 1400 ft
Windchill 32 °F
Dew Point 30 °F
Humidity 90%
Rainfall 0.00 in
Snow Depth Not available.
UV 0 out of 12
Pollen .10 out of 12
Air Quality Not available.
Flu Activity Not available.
METAR KALB 270251Z 35009KT 1 1/2SM -SN BR BKN006 OVC014 00/M02 A2991 RMK AO2 SLP133 P0003 60010 T00001017 58009

More Conditions Fewer Conditions

10-Day Weather Forecast

Almanac

Astronomy

Nov. 26, 2014 Rise Set
Actual Time
Civil Twilight
Nautical Twilight
Astronomical Twilight
Moon
Length of Visible Light
Length of Day
Tomorrow will be .
, % of the Moon is Illuminated

Today's Extremes

State Highs State Lows

Community

WunderPhotos

Upload Photos

1,773,949 photos uploaded!

WunderBlogs® & News

Nearby

Air Quality

  Air Quality AQ Index Pollutant
Not available.

Snow Depth

Station Depth Elevation

Earthquake Activity

City Distance Mag. Time & Date
Minimum magnitude displayed is 2.5.

Coastal Water Temperatures

Place Temperature

Nearby Weather Stations